createdAt,value
2022-10-25T00:01:19.395Z,3.27
2022-10-25T00:03:47.171Z,4.57
2022-10-25T00:06:15.244Z,3.70
2022-10-25T00:08:42.911Z,5.00
2022-10-25T00:11:19.559Z,3.60
2022-10-25T00:13:49.489Z,4.53
2022-10-25T00:16:18.896Z,6.17
2022-10-25T00:18:51.472Z,5.03
2022-10-25T00:21:20.980Z,7.67
2022-10-25T00:23:49.386Z,3.47
2022-10-25T00:26:17.222Z,5.27
2022-10-25T00:28:44.811Z,8.00
2022-10-25T00:31:15.454Z,2.50
2022-10-25T00:33:44.518Z,5.90
2022-10-25T00:36:13.714Z,7.00
2022-10-25T00:38:41.908Z,2.67
2022-10-25T00:41:10.698Z,3.43
2022-10-25T00:43:40.814Z,6.50
2022-10-25T00:46:14.794Z,5.83
2022-10-25T00:48:46.570Z,5.77
2022-10-25T00:51:14.222Z,5.27
2022-10-25T00:53:43.518Z,3.57
2022-10-25T00:56:17.155Z,2.53
2022-10-25T00:58:48.175Z,3.00
2022-10-25T01:01:17.508Z,3.97
2022-10-25T01:03:46.757Z,3.23
2022-10-25T01:06:19.689Z,5.63
2022-10-25T01:08:49.247Z,3.50
2022-10-25T01:13:50.208Z,4.47
2022-10-25T01:16:27.631Z,4.07
2022-10-25T01:19:03.427Z,3.50
2022-10-25T01:24:59.027Z,2.83
2022-10-25T01:28:00.634Z,6.73
2022-10-25T01:30:48.846Z,4.33
2022-10-25T01:33:23.696Z,3.80
2022-10-25T01:35:58.568Z,5.63
2022-10-25T01:38:36.297Z,4.30
2022-10-25T01:41:13.744Z,8.47
2022-10-25T01:43:49.656Z,6.83
2022-10-25T01:46:26.531Z,3.60
2022-10-25T01:49:02.209Z,5.90
2022-10-25T01:51:29.858Z,4.37
2022-10-25T01:53:57.459Z,5.40
2022-10-25T01:56:28.958Z,7.00
2022-10-25T01:59:17.463Z,4.67
2022-10-25T02:01:59.482Z,5.57
2022-10-25T02:04:40.469Z,3.63
2022-10-25T02:07:12.468Z,8.40
2022-10-25T02:09:46.568Z,4.17
2022-10-25T02:12:19.427Z,3.90
2022-10-25T02:14:57.785Z,5.37
2022-10-25T02:17:28.486Z,4.13
2022-10-25T02:20:00.233Z,5.07
2022-10-25T02:22:32.878Z,3.60
2022-10-25T02:25:02.328Z,4.17
2022-10-25T02:27:32.331Z,4.23
2022-10-25T02:30:00.890Z,3.90
2022-10-25T02:32:31.476Z,5.57
2022-10-25T02:34:59.221Z,4.60
2022-10-25T02:37:26.819Z,6.87
2022-10-25T02:39:54.481Z,4.70
2022-10-25T02:42:22.038Z,3.60
2022-10-25T02:44:49.643Z,6.13
2022-10-25T02:47:17.249Z,4.47
2022-10-25T02:49:46.140Z,4.63
2022-10-25T02:52:13.735Z,5.00
2022-10-25T02:54:41.431Z,3.30
2022-10-25T02:57:09.020Z,4.87
2022-10-25T02:59:36.578Z,9.33
2022-10-25T03:02:04.178Z,4.50
2022-10-25T03:04:31.734Z,3.97
2022-10-25T03:07:00.627Z,5.27
2022-10-25T03:09:28.221Z,3.57
2022-10-25T03:11:55.777Z,6.67
2022-10-25T03:14:23.388Z,5.27
2022-10-25T03:16:50.976Z,6.97
2022-10-25T03:19:18.534Z,4.57
2022-10-25T03:21:46.112Z,5.43
2022-10-25T03:24:15.118Z,8.67
2022-10-25T03:26:42.697Z,6.57
2022-10-25T03:29:10.841Z,6.07
2022-10-25T03:31:38.460Z,7.63
2022-10-25T03:34:06.020Z,13.77
2022-10-25T03:36:33.641Z,6.53
2022-10-25T03:39:01.254Z,8.83
2022-10-25T03:41:30.129Z,3.67
2022-10-25T03:43:57.690Z,5.07
2022-10-25T03:46:25.256Z,10.37
2022-10-25T03:48:52.838Z,6.07
2022-10-25T03:51:20.420Z,7.73
2022-10-25T03:53:48.078Z,8.43
2022-10-25T03:56:15.686Z,6.30
2022-10-25T03:58:44.622Z,5.60
2022-10-25T04:01:12.436Z,6.43
2022-10-25T04:03:40.060Z,5.00
2022-10-25T04:06:08.083Z,8.20
2022-10-25T04:08:35.725Z,4.37
2022-10-25T04:11:03.307Z,6.10
2022-10-25T04:13:30.954Z,7.00
2022-10-25T04:15:59.926Z,6.17
2022-10-25T04:18:27.488Z,6.17
2022-10-25T04:20:55.049Z,7.10
2022-10-25T04:23:22.719Z,7.00
2022-10-25T04:25:50.906Z,11.80
2022-10-25T04:28:18.494Z,12.10
2022-10-25T04:30:46.102Z,7.93
2022-10-25T04:33:15.077Z,8.00
2022-10-25T04:35:42.665Z,5.30
2022-10-25T04:38:11.023Z,5.30
2022-10-25T04:40:38.666Z,6.73
2022-10-25T04:43:06.301Z,9.83
2022-10-25T04:45:33.923Z,6.00
2022-10-25T04:48:01.534Z,8.97
2022-10-25T04:50:30.553Z,3.80
2022-10-25T04:52:58.092Z,7.57
2022-10-25T04:55:25.671Z,6.23
2022-10-25T04:57:53.223Z,4.83
2022-10-25T05:00:20.806Z,7.80
2022-10-25T05:02:48.735Z,8.80
2022-10-25T05:05:16.738Z,9.17
2022-10-25T05:07:45.869Z,7.90
2022-10-25T05:10:13.530Z,9.43
2022-10-25T05:12:41.158Z,6.47
2022-10-25T05:15:09.823Z,4.87
2022-10-25T05:17:37.748Z,6.90
2022-10-25T05:20:06.438Z,5.80
2022-10-25T05:22:34.076Z,6.20
2022-10-25T05:25:02.992Z,9.63
2022-10-25T05:27:30.593Z,6.77
2022-10-25T05:29:58.192Z,5.70
2022-10-25T05:32:25.858Z,6.40
2022-10-25T05:34:53.413Z,4.83
2022-10-25T05:37:21.011Z,6.80
2022-10-25T05:39:48.569Z,6.83
2022-10-25T05:42:17.484Z,6.40
2022-10-25T05:44:45.140Z,10.97
2022-10-25T05:47:13.316Z,6.57
2022-10-25T05:49:42.273Z,7.83
2022-10-25T05:52:10.391Z,11.27
2022-10-25T05:54:37.965Z,9.80
2022-10-25T05:57:05.538Z,6.93
2022-10-25T05:59:34.431Z,9.20
2022-10-25T06:02:02.141Z,9.63
2022-10-25T06:04:30.056Z,9.20
2022-10-25T06:06:58.031Z,13.80
2022-10-25T06:09:25.559Z,10.60
2022-10-25T06:11:53.148Z,14.00
2022-10-25T06:14:20.704Z,9.90
2022-10-25T06:16:49.677Z,5.90
2022-10-25T06:19:17.286Z,7.83
2022-10-25T06:21:45.011Z,6.43
2022-10-25T06:24:12.852Z,8.50
2022-10-25T06:26:40.432Z,11.33
2022-10-25T06:29:08.351Z,6.63
2022-10-25T06:31:35.913Z,8.23
2022-10-25T06:34:04.942Z,11.53
2022-10-25T06:36:32.859Z,12.07
2022-10-25T06:39:05.740Z,10.73
2022-10-25T06:41:36.381Z,9.87
2022-10-25T06:44:06.425Z,6.97
2022-10-25T06:46:57.834Z,8.37
2022-10-25T06:49:25.757Z,7.53
2022-10-25T06:51:53.371Z,9.13
2022-10-25T06:54:21.015Z,14.53
2022-10-25T06:56:48.995Z,9.40
2022-10-25T06:59:17.096Z,8.77
2022-10-25T07:01:44.780Z,10.43
2022-10-25T07:04:12.418Z,9.83
2022-10-25T07:06:41.424Z,9.03
2022-10-25T07:09:10.208Z,9.97
2022-10-25T07:11:37.970Z,9.53
2022-10-25T07:14:05.810Z,5.90
2022-10-25T07:16:33.494Z,4.10
2022-10-25T07:19:01.798Z,7.07
2022-10-25T07:21:31.103Z,11.90
2022-10-25T07:24:00.167Z,9.97
2022-10-25T07:26:30.849Z,10.03
2022-10-25T07:29:01.200Z,11.53
2022-10-25T07:31:31.399Z,15.37
2022-10-25T07:34:00.953Z,10.40
2022-10-25T07:36:29.067Z,15.43
2022-10-25T07:38:57.001Z,8.77
2022-10-25T07:41:26.911Z,13.57
2022-10-25T07:43:55.333Z,14.80
2022-10-25T07:46:23.302Z,15.10
2022-10-25T07:48:52.466Z,15.97
2022-10-25T07:51:20.105Z,7.50
2022-10-25T07:53:47.847Z,12.13
2022-10-25T07:56:20.676Z,11.10
2022-10-25T07:58:52.784Z,14.80
2022-10-25T08:01:23.224Z,25.77
2022-10-25T08:03:51.245Z,12.30
2022-10-25T08:06:19.167Z,11.97
2022-10-25T08:08:47.347Z,13.30
2022-10-25T08:11:15.308Z,9.97
2022-10-25T08:13:42.917Z,7.13
2022-10-25T08:16:11.910Z,7.90
2022-10-25T08:18:39.473Z,9.40
2022-10-25T08:21:07.179Z,8.87
2022-10-25T08:23:34.845Z,5.03
2022-10-25T08:26:02.813Z,10.47
2022-10-25T08:28:31.654Z,10.20
2022-10-25T08:31:00.761Z,10.73
2022-10-25T08:33:30.332Z,9.87
2022-10-25T08:36:01.205Z,5.97
2022-10-25T08:38:28.798Z,15.30
2022-10-25T08:41:05.888Z,8.77
2022-10-25T08:43:49.983Z,10.10
2022-10-25T08:46:21.281Z,6.50
2022-10-25T08:48:56.380Z,6.50
2022-10-25T08:51:28.388Z,8.07
2022-10-25T08:53:59.781Z,7.47
2022-10-25T08:56:29.610Z,12.00
2022-10-25T08:59:00.776Z,8.70
2022-10-25T09:01:32.530Z,5.77
2022-10-25T09:04:01.754Z,7.27
2022-10-25T09:06:35.592Z,8.43
2022-10-25T09:09:16.103Z,6.77
2022-10-25T09:11:53.651Z,7.10
2022-10-25T09:14:33.272Z,7.30
2022-10-25T09:17:08.387Z,5.73
2022-10-25T09:19:44.280Z,10.50
2022-10-25T09:22:19.368Z,5.30
2022-10-25T09:24:56.898Z,12.93
2022-10-25T09:27:32.920Z,7.23
2022-10-25T09:30:07.260Z,7.93
2022-10-25T09:32:40.363Z,15.83
2022-10-25T09:35:17.697Z,7.57
2022-10-25T09:37:49.776Z,7.97
2022-10-25T09:40:21.755Z,7.27
2022-10-25T09:42:53.586Z,10.13
2022-10-25T09:45:25.737Z,6.07
2022-10-25T09:48:00.735Z,7.00
2022-10-25T09:50:33.135Z,6.13
2022-10-25T09:53:11.099Z,7.32
2022-10-25T09:55:47.434Z,3.72
2022-10-25T09:58:20.499Z,10.27
2022-10-25T10:00:48.591Z,5.53
2022-10-25T10:03:16.394Z,4.33
2022-10-25T10:05:51.644Z,5.37
2022-10-25T10:08:19.529Z,8.47
2022-10-25T10:10:49.494Z,5.63
2022-10-25T10:13:25.259Z,8.27
2022-10-25T10:15:57.411Z,5.57
2022-10-25T10:18:27.622Z,8.07
2022-10-25T10:21:19.835Z,5.83
2022-10-25T10:23:53.611Z,6.47
2022-10-25T10:26:29.321Z,5.77
2022-10-25T10:29:08.876Z,5.63
2022-10-25T10:31:38.847Z,8.80
2022-10-25T10:34:08.444Z,8.57
2022-10-25T10:36:37.546Z,6.20
2022-10-25T10:39:21.095Z,7.60
2022-10-25T10:42:00.812Z,8.40
2022-10-25T10:44:28.586Z,5.77
2022-10-25T10:46:56.732Z,10.40
2022-10-25T10:49:36.467Z,9.40
2022-10-25T10:52:06.532Z,7.63
2022-10-25T10:54:38.827Z,11.07
2022-10-25T10:57:08.176Z,9.57
2022-10-25T10:59:44.036Z,9.23
2022-10-25T11:02:29.497Z,12.07
2022-10-25T11:04:57.992Z,5.67
2022-10-25T11:07:31.625Z,6.87
2022-10-25T11:10:20.385Z,5.43
2022-10-25T11:13:06.273Z,11.77
2022-10-25T11:15:43.834Z,13.00
2022-10-25T11:18:13.968Z,6.30
2022-10-25T11:20:51.884Z,8.27
2022-10-25T11:23:29.795Z,8.60
2022-10-25T11:26:02.921Z,5.10
2022-10-25T11:28:45.334Z,4.27
2022-10-25T11:31:27.772Z,6.87
2022-10-25T11:34:09.820Z,7.63
2022-10-25T11:36:59.217Z,9.13
2022-10-25T11:39:48.186Z,4.53
2022-10-25T11:42:37.025Z,7.13
2022-10-25T11:45:22.751Z,6.27
2022-10-25T11:48:02.773Z,6.50
2022-10-25T11:50:40.008Z,4.00
2022-10-25T11:53:31.218Z,4.63
2022-10-25T11:56:05.919Z,7.03
2022-10-25T11:58:44.571Z,7.87
2022-10-25T12:01:28.490Z,5.10
2022-10-25T12:04:10.865Z,7.40
2022-10-25T12:06:46.685Z,9.20
2022-10-25T12:09:25.908Z,6.47
2022-10-25T12:12:00.612Z,7.80
2022-10-25T12:14:33.148Z,4.20
2022-10-25T12:17:02.836Z,4.60
2022-10-25T12:19:36.483Z,6.07
2022-10-25T12:22:07.619Z,4.27
2022-10-25T12:24:40.405Z,3.40
2022-10-25T12:27:11.709Z,7.80
2022-10-25T12:29:43.140Z,4.83
2022-10-25T12:32:16.035Z,9.20
2022-10-25T12:34:46.733Z,8.03
2022-10-25T12:37:22.476Z,7.70
2022-10-25T12:39:50.181Z,6.20
2022-10-25T12:42:23.276Z,6.10
2022-10-25T12:45:13.457Z,4.83
2022-10-25T12:47:54.872Z,6.90
2022-10-25T12:51:00.403Z,5.43
2022-10-25T12:53:59.755Z,6.83
2022-10-25T12:56:39.468Z,6.80
2022-10-25T12:59:17.629Z,5.47
2022-10-25T13:02:05.052Z,7.67
2022-10-25T13:04:55.192Z,9.37
2022-10-25T13:07:25.138Z,4.63
2022-10-25T13:09:53.463Z,5.80
2022-10-25T13:12:26.229Z,6.23
2022-10-25T13:14:57.138Z,5.97
2022-10-25T13:18:02.311Z,2.93
2022-10-25T13:20:47.715Z,5.80
2022-10-25T13:24:00.547Z,6.07
2022-10-25T13:26:31.941Z,4.13
2022-10-25T13:29:02.444Z,4.30
2022-10-25T13:31:47.304Z,3.20
2022-10-25T13:34:37.020Z,3.13
2022-10-25T13:37:44.608Z,4.77
2022-10-25T13:40:30.854Z,2.93
2022-10-25T13:43:01.993Z,5.63
2022-10-25T13:45:45.649Z,8.50
2022-10-25T13:48:29.725Z,4.43
2022-10-25T13:50:59.622Z,1.73
2022-10-25T13:53:35.986Z,4.37
2022-10-25T13:56:06.762Z,5.40
2022-10-25T13:58:51.458Z,2.90
2022-10-25T14:01:57.318Z,5.77
2022-10-25T14:04:37.195Z,6.73
2022-10-25T14:07:50.708Z,4.80
2022-10-25T14:10:25.114Z,4.33
2022-10-25T14:12:58.171Z,6.30
2022-10-25T14:15:42.319Z,4.87
2022-10-25T14:18:18.481Z,3.43
2022-10-25T14:20:50.142Z,2.27
2022-10-25T14:23:22.887Z,7.43
2022-10-25T14:25:53.763Z,4.50
2022-10-25T14:28:26.564Z,2.33
2022-10-25T14:30:56.436Z,5.20
2022-10-25T14:33:29.720Z,2.90
2022-10-25T14:36:07.860Z,5.00
2022-10-25T14:38:39.534Z,5.23
2022-10-25T14:41:13.378Z,4.53
2022-10-25T14:43:42.673Z,4.40
2022-10-25T14:46:17.855Z,4.23
2022-10-25T14:48:47.734Z,5.77
2022-10-25T14:51:21.736Z,3.93
2022-10-25T14:53:53.825Z,3.53
2022-10-25T14:56:24.980Z,9.20
2022-10-25T14:58:52.927Z,7.10
2022-10-25T15:01:22.734Z,6.33
2022-10-25T15:03:53.976Z,8.47
2022-10-25T15:06:26.202Z,6.67
2022-10-25T15:09:14.847Z,4.80
2022-10-25T15:12:15.913Z,4.37
2022-10-25T15:14:43.608Z,5.17
2022-10-25T15:17:27.102Z,7.37
2022-10-25T15:20:07.222Z,2.37
2022-10-25T15:22:44.150Z,6.27
2022-10-25T15:25:20.436Z,4.63
2022-10-25T15:27:48.858Z,2.73
2022-10-25T15:30:34.809Z,3.23
2022-10-25T15:33:02.720Z,3.47
2022-10-25T15:35:32.215Z,3.47
2022-10-25T15:38:01.172Z,2.70
2022-10-25T15:40:28.763Z,1.97
2022-10-25T15:42:56.321Z,5.20
2022-10-25T15:45:23.946Z,2.37
2022-10-25T15:47:53.415Z,4.47
2022-10-25T15:50:22.673Z,3.13
2022-10-25T15:52:50.473Z,5.37
2022-10-25T15:55:22.130Z,6.63
2022-10-25T15:57:50.834Z,4.60
2022-10-25T16:00:27.263Z,5.73
2022-10-25T16:02:56.525Z,5.37
2022-10-25T16:05:26.935Z,3.77
2022-10-25T16:07:54.957Z,6.17
2022-10-25T16:10:26.008Z,5.60
2022-10-25T16:12:59.558Z,4.37
2022-10-25T16:15:27.621Z,6.63
2022-10-25T16:17:55.139Z,5.57
2022-10-25T16:20:25.229Z,5.90
2022-10-25T16:22:53.145Z,5.50
2022-10-25T16:25:21.872Z,8.77
2022-10-25T16:27:50.871Z,7.60
2022-10-25T16:30:21.080Z,6.57
2022-10-25T16:32:49.265Z,4.70
2022-10-25T16:35:24.026Z,8.43
2022-10-25T16:37:51.893Z,8.20
2022-10-25T16:40:22.530Z,10.77
2022-10-25T16:42:51.647Z,7.57
2022-10-25T16:45:23.607Z,7.30
2022-10-25T16:47:51.247Z,7.17
2022-10-25T16:50:23.046Z,7.90
2022-10-25T16:52:50.903Z,6.87
2022-10-25T16:55:19.443Z,7.00
2022-10-25T17:00:18.506Z,10.77
2022-10-25T17:02:46.405Z,11.47
2022-10-25T17:05:19.526Z,8.53
2022-10-25T17:07:47.206Z,11.20
2022-10-25T17:10:15.410Z,13.87
2022-10-25T17:12:44.539Z,11.80
2022-10-25T17:15:13.262Z,14.13
2022-10-25T17:17:42.542Z,11.47
2022-10-25T17:20:11.632Z,13.07
2022-10-25T17:22:39.802Z,10.30
2022-10-25T17:25:09.464Z,9.67
2022-10-25T17:27:41.695Z,15.70
2022-10-25T17:30:11.021Z,12.50
2022-10-25T17:32:39.332Z,11.87
2022-10-25T17:35:08.913Z,12.97
2022-10-25T17:37:39.170Z,11.10
2022-10-25T17:40:09.946Z,11.70
2022-10-25T17:42:37.670Z,13.03
2022-10-25T17:45:06.390Z,14.53
2022-10-25T17:47:34.083Z,11.43
2022-10-25T17:50:01.756Z,13.67
2022-10-25T17:52:30.948Z,10.67
2022-10-25T17:54:58.636Z,15.13
2022-10-25T17:57:26.387Z,11.17
2022-10-25T17:59:54.150Z,11.27
2022-10-25T18:02:21.989Z,13.83
2022-10-25T18:05:02.232Z,12.93
2022-10-25T18:07:39.075Z,11.20
2022-10-25T18:10:07.330Z,9.37
2022-10-25T18:12:34.993Z,11.33
2022-10-25T18:15:02.809Z,19.67
2022-10-25T18:17:30.461Z,13.27
2022-10-25T18:19:58.160Z,11.17
2022-10-25T18:22:26.244Z,10.90
2022-10-25T18:24:55.175Z,10.77
2022-10-25T18:27:22.928Z,11.37
2022-10-25T18:29:50.549Z,13.23
2022-10-25T18:32:18.152Z,12.47
2022-10-25T18:34:45.846Z,12.30
2022-10-25T18:37:13.512Z,17.20
2022-10-25T18:39:41.101Z,12.70
2022-10-25T18:42:10.013Z,15.70
2022-10-25T18:44:39.982Z,11.93
2022-10-25T18:47:07.746Z,11.93
2022-10-25T18:49:35.996Z,12.30
2022-10-25T18:52:03.725Z,12.73
2022-10-25T18:54:31.394Z,29.67
2022-10-25T18:56:59.021Z,58.30
2022-10-25T18:59:28.022Z,39.03
2022-10-25T19:01:55.887Z,31.57
2022-10-25T19:04:23.631Z,31.77
2022-10-25T19:06:51.202Z,22.50
2022-10-25T19:09:18.764Z,21.80
2022-10-25T19:11:46.454Z,20.17
2022-10-25T19:14:14.225Z,21.90
2022-10-25T19:16:43.663Z,22.87
2022-10-25T19:19:11.913Z,20.37
2022-10-25T19:21:39.597Z,25.87
2022-10-25T19:24:11.735Z,20.20
2022-10-25T19:26:39.469Z,22.50
2022-10-25T19:29:07.337Z,24.33
2022-10-25T19:31:34.978Z,26.17
2022-10-25T19:34:04.093Z,19.47
2022-10-25T19:36:32.078Z,21.20
2022-10-25T19:39:00.169Z,21.97
2022-10-25T19:41:29.203Z,20.27
2022-10-25T19:43:58.693Z,22.33
2022-10-25T19:46:26.557Z,20.83
2022-10-25T19:48:56.289Z,18.73
2022-10-25T19:51:25.404Z,20.17
2022-10-25T19:53:53.222Z,23.73
2022-10-25T19:56:22.777Z,24.13
2022-10-25T19:58:51.419Z,19.07
2022-10-25T20:01:20.936Z,22.30
2022-10-25T20:03:50.791Z,19.10
2022-10-25T20:06:24.280Z,20.57
2022-10-25T20:08:55.193Z,20.87
2022-10-25T20:11:24.415Z,18.73
2022-10-25T20:13:53.730Z,17.50
2022-10-25T20:16:21.444Z,24.77
2022-10-25T20:18:49.179Z,25.50
2022-10-25T20:21:19.878Z,28.90
2022-10-25T20:23:50.689Z,24.40
2022-10-25T20:26:21.636Z,18.70
2022-10-25T20:28:49.860Z,19.03
2022-10-25T20:31:19.380Z,18.27
2022-10-25T20:33:47.223Z,17.20
2022-10-25T20:36:15.284Z,17.73
2022-10-25T20:38:43.119Z,16.23
2022-10-25T20:41:12.628Z,17.80
2022-10-25T20:43:43.084Z,17.30
2022-10-25T20:46:10.856Z,21.27
2022-10-25T20:48:38.529Z,21.63
2022-10-25T20:51:07.857Z,17.23
2022-10-25T20:53:36.775Z,18.83
2022-10-25T20:56:04.674Z,20.70
2022-10-25T20:58:32.588Z,23.25
2022-10-25T21:01:01.936Z,23.73
2022-10-25T21:03:31.499Z,27.97
2022-10-25T21:06:00.820Z,23.90
2022-10-25T21:08:28.466Z,24.27
2022-10-25T21:10:57.782Z,26.63
2022-10-25T21:13:26.479Z,23.77
2022-10-25T21:15:54.413Z,28.60
2022-10-25T21:18:27.808Z,25.57
2022-10-25T21:20:56.388Z,25.33
2022-10-25T21:23:24.024Z,26.53
2022-10-25T21:25:58.323Z,21.90
2022-10-25T21:28:26.308Z,26.00
2022-10-25T21:30:54.164Z,23.90
2022-10-25T21:33:23.290Z,21.57
2022-10-25T21:35:50.875Z,21.30
2022-10-25T21:38:18.528Z,21.83
2022-10-25T21:40:46.121Z,21.13
2022-10-25T21:43:13.703Z,23.50
2022-10-25T21:45:42.358Z,22.67
2022-10-25T21:48:09.938Z,21.27
2022-10-25T21:50:38.805Z,17.27
2022-10-25T21:53:06.331Z,18.77
2022-10-25T21:55:33.896Z,17.77
2022-10-25T21:58:01.455Z,17.63
2022-10-25T22:00:29.000Z,18.50
2022-10-25T22:02:56.970Z,14.83
2022-10-25T22:05:24.645Z,20.33
2022-10-25T22:07:53.575Z,16.90
2022-10-25T22:10:21.174Z,18.23
2022-10-25T22:12:49.059Z,21.40
2022-10-25T22:15:17.325Z,13.00
2022-10-25T22:17:44.931Z,17.10
2022-10-25T22:20:12.746Z,16.87
2022-10-25T22:22:40.293Z,19.70
2022-10-25T22:25:09.772Z,17.13
2022-10-25T22:27:37.367Z,13.90
2022-10-25T22:30:05.442Z,13.93
2022-10-25T22:32:33.065Z,16.10
2022-10-25T22:35:00.641Z,16.17
2022-10-25T22:37:28.281Z,16.90
2022-10-25T22:39:55.875Z,12.77
2022-10-25T22:42:25.766Z,13.40
2022-10-25T22:44:53.328Z,11.83
2022-10-25T22:47:20.866Z,15.83
2022-10-25T22:49:48.560Z,16.57
2022-10-25T22:52:16.114Z,18.73
2022-10-25T22:54:43.780Z,13.80
2022-10-25T22:57:11.800Z,14.47
2022-10-25T22:59:40.696Z,13.27
2022-10-25T23:02:08.261Z,15.23
2022-10-25T23:04:35.897Z,11.97
2022-10-25T23:07:03.524Z,12.33
2022-10-25T23:09:31.146Z,11.80
2022-10-25T23:11:58.704Z,10.90
2022-10-25T23:14:26.313Z,12.80
2022-10-25T23:16:55.219Z,14.67
2022-10-25T23:19:22.793Z,12.40
2022-10-25T23:21:50.349Z,11.63
2022-10-25T23:24:18.066Z,10.17
2022-10-25T23:26:45.640Z,14.20
2022-10-25T23:29:13.726Z,12.70
2022-10-25T23:31:41.555Z,17.23
2022-10-25T23:34:11.381Z,12.27
2022-10-25T23:36:39.054Z,13.13
2022-10-25T23:39:08.372Z,12.90
2022-10-25T23:41:36.301Z,11.70
2022-10-25T23:44:04.088Z,12.00
2022-10-25T23:46:31.666Z,13.03
2022-10-25T23:48:59.491Z,7.93
2022-10-25T23:51:28.425Z,15.20
2022-10-25T23:53:56.062Z,11.27
2022-10-25T23:56:23.627Z,8.90
2022-10-25T23:58:53.387Z,11.83
